HFA7561 LLHA-LBSF
Flight info
| Callsign | HFA7561 |
|---|---|
| Flight time | N/A |
| Altitude | 20000 |
| Route | GALIM DCT MERVA P68 APLON L609 ALKIS UL609 MES UG18 GIKAS UN133 PEREN L863 EVIVI Y94 VANET |
| Aircraft | AT76/M-SDFGIRY/S |
Departure
| Time | 2026-04-21 16:38 |
|---|---|
| Airport | Uri Michaeli Haifa International Airport (LLHA) |
Arrival
| Time | N/A |
|---|---|
| Airport | Sofia Airport (LBSF) |
| Time | Latitude | Longitude | Altitude | Speed | Heading |
|---|---|---|---|---|---|
| 2026-04-21 16:26 | 32.81159 | 35.04171 | 21 ft | 0 kts | 140° |
| 2026-04-21 16:32 | 32.81156 | 35.04175 | 21 ft | 0 kts | 139° |
| 2026-04-21 16:34 | 32.81153 | 35.04178 | 22 ft | 3 kts | 135° |
| 2026-04-21 16:34 | 32.81150 | 35.04217 | 22 ft | 6 kts | 76° |
| 2026-04-21 16:34 | 32.81154 | 35.04228 | 23 ft | 1 kts | 70° |
| 2026-04-21 16:34 | 32.81167 | 35.04289 | 25 ft | 16 kts | 96° |
| 2026-04-21 16:35 | 32.81067 | 35.04352 | 23 ft | 18 kts | 163° |
| 2026-04-21 16:35 | 32.80915 | 35.04415 | 24 ft | 30 kts | 159° |
| 2026-04-21 16:35 | 32.80737 | 35.04492 | 22 ft | 22 kts | 159° |
| 2026-04-21 16:35 | 32.80634 | 35.04542 | 23 ft | 17 kts | 159° |
| 2026-04-21 16:36 | 32.80533 | 35.04569 | 19 ft | 11 kts | 179° |
| 2026-04-21 16:36 | 32.80504 | 35.04595 | 18 ft | 1 kts | 86° |
| 2026-04-21 16:36 | 32.80511 | 35.04596 | 18 ft | 2 kts | 7° |
| 2026-04-21 16:36 | 32.80546 | 35.04581 | 21 ft | 5 kts | 342° |
| 2026-04-21 16:37 | 32.80653 | 35.04533 | 22 ft | 44 kts | 338° |
| 2026-04-21 16:37 | 32.81127 | 35.04328 | 24 ft | 97 kts | 340° |
| 2026-04-21 16:37 | 32.81831 | 35.04009 | 211 ft | 113 kts | 335° |
| 2026-04-21 16:37 | 32.82655 | 35.03655 | 533 ft | 142 kts | 341° |
| 2026-04-21 16:38 | 32.83675 | 35.03314 | 1027 ft | 159 kts | 343° |
| 2026-04-21 16:38 | 32.84816 | 35.02978 | 1400 ft | 176 kts | 344° |
| 2026-04-21 16:38 | 32.86026 | 35.02602 | 1762 ft | 179 kts | 336° |
| 2026-04-21 16:38 | 32.86789 | 35.01671 | 1987 ft | 152 kts | 287° |
| 2026-04-21 16:39 | 32.86562 | 35.00533 | 2178 ft | 145 kts | 233° |
| 2026-04-21 16:39 | 32.85830 | 34.99607 | 2434 ft | 163 kts | 231° |
| 2026-04-21 16:39 | 32.85070 | 34.98540 | 2690 ft | 173 kts | 234° |
| 2026-04-21 16:39 | 32.84373 | 34.97418 | 2946 ft | 172 kts | 238° |
| 2026-04-21 16:40 | 32.83705 | 34.96174 | 3296 ft | 178 kts | 242° |
| 2026-04-21 16:40 | 32.83196 | 34.94873 | 3770 ft | 175 kts | 254° |
| 2026-04-21 16:40 | 32.82905 | 34.93481 | 4237 ft | 173 kts | 261° |
| 2026-04-21 16:40 | 32.82711 | 34.92071 | 4729 ft | 172 kts | 263° |
| 2026-04-21 16:41 | 32.82558 | 34.90669 | 5206 ft | 171 kts | 264° |
| 2026-04-21 16:41 | 32.82407 | 34.89268 | 5688 ft | 170 kts | 264° |
| 2026-04-21 16:41 | 32.82256 | 34.87881 | 6173 ft | 169 kts | 264° |
| 2026-04-21 16:41 | 32.82099 | 34.86506 | 6649 ft | 168 kts | 264° |
| 2026-04-21 16:42 | 32.81938 | 34.85138 | 7110 ft | 167 kts | 264° |
| 2026-04-21 16:42 | 32.81774 | 34.83778 | 7576 ft | 165 kts | 264° |
| 2026-04-21 16:42 | 32.81611 | 34.82441 | 8047 ft | 162 kts | 264° |
| 2026-04-21 16:42 | 32.81447 | 34.81124 | 8524 ft | 160 kts | 264° |
| 2026-04-21 16:43 | 32.81286 | 34.79825 | 9003 ft | 158 kts | 264° |
| 2026-04-21 16:43 | 32.81113 | 34.78531 | 9474 ft | 160 kts | 263° |
| 2026-04-21 16:43 | 32.80941 | 34.77193 | 9877 ft | 165 kts | 264° |
| 2026-04-21 16:43 | 32.80776 | 34.75838 | 10316 ft | 166 kts | 264° |
| 2026-04-21 16:44 | 32.80610 | 34.74480 | 10778 ft | 166 kts | 264° |
| 2026-04-21 16:44 | 32.80445 | 34.73124 | 11223 ft | 166 kts | 264° |
| 2026-04-21 16:44 | 32.80277 | 34.71737 | 11606 ft | 172 kts | 264° |
| 2026-04-21 16:44 | 32.80105 | 34.70325 | 12054 ft | 174 kts | 264° |
| 2026-04-21 16:45 | 32.79930 | 34.68919 | 12513 ft | 174 kts | 264° |
| 2026-04-21 16:45 | 32.79753 | 34.67490 | 12975 ft | 175 kts | 264° |
| 2026-04-21 16:45 | 32.79577 | 34.66049 | 13391 ft | 180 kts | 265° |
| 2026-04-21 16:45 | 32.79394 | 34.64555 | 13800 ft | 183 kts | 265° |
| 2026-04-21 16:46 | 32.79209 | 34.63066 | 14258 ft | 182 kts | 265° |
| 2026-04-21 16:46 | 32.79025 | 34.61578 | 14700 ft | 181 kts | 265° |
| 2026-04-21 16:46 | 32.78841 | 34.60099 | 15128 ft | 181 kts | 265° |
| 2026-04-21 16:46 | 32.78658 | 34.58614 | 15494 ft | 185 kts | 265° |
| 2026-04-21 16:47 | 32.78469 | 34.57087 | 15901 ft | 187 kts | 264° |
| 2026-04-21 16:47 | 32.78279 | 34.55557 | 16358 ft | 187 kts | 264° |
| 2026-04-21 16:47 | 32.78184 | 34.54042 | 16785 ft | 183 kts | 284° |
| 2026-04-21 16:47 | 32.78733 | 34.52681 | 17184 ft | 184 kts | 299° |
| 2026-04-21 16:48 | 32.79390 | 34.51375 | 17631 ft | 185 kts | 300° |
| 2026-04-21 16:48 | 32.80069 | 34.50029 | 17954 ft | 192 kts | 299° |
| 2026-04-21 16:48 | 32.80744 | 34.48660 | 18398 ft | 192 kts | 298° |
| 2026-04-21 16:48 | 32.81392 | 34.47274 | 18799 ft | 192 kts | 296° |
| 2026-04-21 16:49 | 32.82027 | 34.45879 | 19194 ft | 192 kts | 296° |
| 2026-04-21 16:49 | 32.82657 | 34.44480 | 19609 ft | 191 kts | 296° |
| 2026-04-21 16:49 | 32.83286 | 34.43083 | 19903 ft | 197 kts | 296° |
| 2026-04-21 16:49 | 32.83956 | 34.41588 | 19967 ft | 212 kts | 296° |
| 2026-04-21 16:50 | 32.84674 | 34.39985 | 19995 ft | 227 kts | 296° |
| 2026-04-21 16:50 | 32.85439 | 34.38277 | 20005 ft | 240 kts | 296° |
| 2026-04-21 16:50 | 32.86240 | 34.36486 | 20010 ft | 250 kts | 296° |
| 2026-04-21 16:50 | 32.87073 | 34.34623 | 20015 ft | 259 kts | 296° |
| 2026-04-21 16:51 | 32.87924 | 34.32724 | 20014 ft | 265 kts | 296° |
| 2026-04-21 16:51 | 32.88799 | 34.30764 | 20017 ft | 270 kts | 296° |
| 2026-04-21 16:51 | 32.89687 | 34.28775 | 20014 ft | 274 kts | 296° |
| 2026-04-21 16:51 | 32.90590 | 34.26757 | 20013 ft | 277 kts | 296° |
| 2026-04-21 16:52 | 32.91497 | 34.24721 | 20014 ft | 280 kts | 296° |
| 2026-04-21 16:52 | 32.92400 | 34.22698 | 20017 ft | 282 kts | 296° |
| 2026-04-21 16:52 | 32.93311 | 34.20653 | 20015 ft | 283 kts | 296° |
| 2026-04-21 16:52 | 32.94234 | 34.18582 | 20013 ft | 284 kts | 296° |
| 2026-04-21 16:53 | 32.95163 | 34.16499 | 20017 ft | 285 kts | 296° |
| 2026-04-21 16:53 | 32.96091 | 34.14414 | 20015 ft | 285 kts | 296° |
| 2026-04-21 16:53 | 32.97020 | 34.12323 | 20016 ft | 286 kts | 296° |
| 2026-04-21 16:53 | 32.97953 | 34.10225 | 20013 ft | 286 kts | 296° |
| 2026-04-21 16:54 | 32.98886 | 34.08128 | 20019 ft | 287 kts | 296° |
| 2026-04-21 16:54 | 32.99818 | 34.06024 | 20019 ft | 287 kts | 296° |
| 2026-04-21 16:54 | 33.00752 | 34.03919 | 20019 ft | 287 kts | 296° |
| 2026-04-21 16:54 | 33.01687 | 34.01815 | 20020 ft | 287 kts | 296° |
| 2026-04-21 16:55 | 33.02622 | 33.99707 | 20021 ft | 287 kts | 296° |
| 2026-04-21 16:55 | 33.03554 | 33.97604 | 20020 ft | 287 kts | 296° |
| 2026-04-21 16:55 | 33.04489 | 33.95493 | 20020 ft | 288 kts | 296° |
| 2026-04-21 16:55 | 33.05422 | 33.93386 | 20019 ft | 288 kts | 296° |
| 2026-04-21 16:56 | 33.06355 | 33.91277 | 20021 ft | 288 kts | 296° |
| 2026-04-21 16:56 | 33.07289 | 33.89164 | 20019 ft | 288 kts | 296° |
| 2026-04-21 16:56 | 33.08221 | 33.87052 | 20019 ft | 288 kts | 296° |
| 2026-04-21 16:56 | 33.09156 | 33.84935 | 20020 ft | 288 kts | 296° |
| 2026-04-21 16:57 | 33.10088 | 33.82823 | 20019 ft | 288 kts | 297° |
| 2026-04-21 16:57 | 33.11020 | 33.80712 | 20019 ft | 288 kts | 296° |
| 2026-04-21 16:57 | 33.11949 | 33.78598 | 20016 ft | 288 kts | 297° |
| 2026-04-21 16:57 | 33.12872 | 33.76504 | 20016 ft | 288 kts | 297° |
| 2026-04-21 16:58 | 33.13804 | 33.74387 | 20019 ft | 288 kts | 296° |
| 2026-04-21 16:58 | 33.14736 | 33.72267 | 20017 ft | 288 kts | 297° |
| 2026-04-21 16:58 | 33.15667 | 33.70151 | 20015 ft | 288 kts | 297° |
| 2026-04-21 16:58 | 33.16596 | 33.68033 | 20016 ft | 288 kts | 297° |
| 2026-04-21 16:59 | 33.17526 | 33.65915 | 20019 ft | 288 kts | 297° |
| 2026-04-21 16:59 | 33.18456 | 33.63798 | 20017 ft | 288 kts | 297° |
| 2026-04-21 16:59 | 33.19387 | 33.61679 | 20017 ft | 288 kts | 297° |
| 2026-04-21 16:59 | 33.20315 | 33.59557 | 20012 ft | 288 kts | 297° |
| 2026-04-21 17:00 | 33.21243 | 33.57440 | 20019 ft | 288 kts | 297° |
| 2026-04-21 17:00 | 33.22175 | 33.55313 | 20014 ft | 288 kts | 297° |
| 2026-04-21 17:00 | 33.22790 | 33.53910 | 20014 ft | 288 kts | 297° |
| 2026-04-21 17:00 | 33.24034 | 33.51067 | 20011 ft | 288 kts | 297° |
| 2026-04-21 17:01 | 33.24958 | 33.48936 | 20014 ft | 288 kts | 296° |
| 2026-04-21 17:01 | 33.25566 | 33.47529 | 20015 ft | 288 kts | 296° |